Time;durP1;ratioP1;P1;durP2;ratioP2;P2;SDS_P1;SDS_P2;PMS_P1;PMS_P2;Temp;Humidity;BMP_temperature;BMP_pressure;BME280_temperature;BME280_humidity;BME280_pressure;Samples;Min_cycle;Max_cycle;Signal;HPM_P1;HPM_P2
2023/10/23 00:01:17;;;;;;;12.18;6.85;;;9.40;96.80;;;;;;5000149;28;20034;-79
2023/10/23 00:03:42;;;;;;;13.45;7.43;;;9.40;96.80;;;;;;5002582;28;20626;-78
2023/10/23 00:06:08;;;;;;;14.50;7.47;;;9.40;96.90;;;;;;5004389;28;20045;-76
2023/10/23 00:08:34;;;;;;;13.98;7.05;;;9.40;96.90;;;;;;4999281;28;20038;-77
2023/10/23 00:10:59;;;;;;;11.52;6.88;;;9.40;96.80;;;;;;5008167;28;20120;-76
2023/10/23 00:13:25;;;;;;;13.32;6.75;;;9.30;96.80;;;;;;4998389;28;20046;-78
2023/10/23 00:15:51;;;;;;;11.50;7.47;;;9.30;96.80;;;;;;5004000;28;20135;-76
2023/10/23 00:18:16;;;;;;;12.27;7.60;;;9.30;96.80;;;;;;5006123;28;20041;-75
2023/10/23 00:20:42;;;;;;;12.40;7.35;;;9.30;96.80;;;;;;5007029;28;20783;-76
2023/10/23 00:23:08;;;;;;;11.63;6.68;;;9.20;96.80;;;;;;5002738;28;20057;-76
2023/10/23 00:25:34;;;;;;;11.75;7.47;;;9.20;96.70;;;;;;5009699;28;20038;-75
2023/10/23 00:28:01;;;;;;;15.32;7.20;;;9.10;96.70;;;;;;5005408;28;20072;-75
2023/10/23 00:30:27;;;;;;;11.73;8.15;;;9.00;96.70;;;;;;5003058;28;20054;-75
2023/10/23 00:32:52;;;;;;;11.13;7.10;;;9.00;96.80;;;;;;5001791;28;20899;-77
2023/10/23 00:35:19;;;;;;;14.13;8.07;;;9.00;96.90;;;;;;5003975;28;20050;-75
2023/10/23 00:37:45;;;;;;;13.32;7.88;;;9.00;96.90;;;;;;5002302;28;20056;-77
2023/10/23 00:40:11;;;;;;;13.95;7.72;;;9.00;96.90;;;;;;5021105;28;20472;-78
2023/10/23 00:42:36;;;;;;;13.82;7.43;;;8.90;96.90;;;;;;5002973;28;20048;-77
2023/10/23 00:45:02;;;;;;;13.38;6.80;;;8.90;96.90;;;;;;5006341;28;20507;-75
2023/10/23 00:47:28;;;;;;;11.65;7.45;;;8.90;96.90;;;;;;5002462;28;20034;-75
2023/10/23 00:49:57;;;;;;;11.95;7.13;;;8.80;96.90;;;;;;5006770;28;20046;-76
2023/10/23 00:52:23;;;;;;;13.02;6.72;;;8.80;96.90;;;;;;5002517;28;20038;-77
2023/10/23 00:54:49;;;;;;;13.20;6.82;;;8.80;96.90;;;;;;5005313;28;20065;-76
2023/10/23 00:57:15;;;;;;;11.00;6.63;;;8.90;97.00;;;;;;5003012;28;20132;-76
2023/10/23 00:59:42;;;;;;;13.52;7.03;;;8.80;97.00;;;;;;5006998;28;20034;-77
2023/10/23 01:02:08;;;;;;;12.23;7.38;;;8.80;97.00;;;;;;5007052;28;20073;-76
2023/10/23 01:04:33;;;;;;;12.32;7.38;;;8.80;97.10;;;;;;5007632;28;20148;-76
2023/10/23 01:06:59;;;;;;;11.88;6.85;;;8.80;96.90;;;;;;5006196;28;20049;-76
2023/10/23 01:09:25;;;;;;;10.20;6.45;;;8.70;96.80;;;;;;5006942;28;20331;-77
2023/10/23 01:11:50;;;;;;;13.15;6.70;;;8.60;96.90;;;;;;5002934;28;20091;-76
2023/10/23 01:14:16;;;;;;;13.90;7.78;;;8.70;96.90;;;;;;5007803;28;20141;-78
2023/10/23 01:16:42;;;;;;;12.60;7.00;;;8.60;96.80;;;;;;5005085;28;20057;-77
2023/10/23 01:19:07;;;;;;;13.73;6.70;;;8.60;96.90;;;;;;5005813;28;20033;-78
2023/10/23 01:21:33;;;;;;;11.93;7.13;;;8.60;97.00;;;;;;5002574;28;20073;-76
2023/10/23 01:24:00;;;;;;;11.77;6.70;;;8.60;97.00;;;;;;5008687;28;20105;-76
2023/10/23 01:26:26;;;;;;;12.32;7.18;;;8.60;97.00;;;;;;5002154;28;20038;-77
2023/10/23 01:28:52;;;;;;;11.32;7.10;;;8.60;97.00;;;;;;5004226;28;20025;-77
2023/10/23 01:31:17;;;;;;;10.23;6.28;;;8.60;96.90;;;;;;5000323;28;20058;-76
2023/10/23 01:33:43;;;;;;;11.57;6.35;;;8.60;96.90;;;;;;5005227;28;20037;-76
2023/10/23 01:36:09;;;;;;;13.90;6.95;;;8.60;96.90;;;;;;5004954;28;20050;-76
2023/10/23 01:38:34;;;;;;;12.15;6.78;;;8.60;96.80;;;;;;5014493;28;20033;-78
2023/10/23 01:41:00;;;;;;;10.55;6.75;;;8.60;96.70;;;;;;5005924;28;20038;-76
2023/10/23 01:43:25;;;;;;;9.65;5.85;;;8.60;96.70;;;;;;5007714;28;20037;-76
2023/10/23 01:45:51;;;;;;;12.70;6.45;;;8.50;96.70;;;;;;5007623;28;20045;-76
2023/10/23 01:48:17;;;;;;;13.60;7.20;;;8.50;96.70;;;;;;5012736;28;20049;-76
2023/10/23 01:50:43;;;;;;;12.25;7.22;;;8.50;96.80;;;;;;5006208;28;20042;-76
2023/10/23 01:53:08;;;;;;;11.48;6.35;;;8.40;96.70;;;;;;5009946;28;20046;-75
2023/10/23 01:55:35;;;;;;;13.10;7.43;;;8.40;96.80;;;;;;5006407;28;20037;-75
2023/10/23 01:58:01;;;;;;;13.85;8.00;;;8.30;96.80;;;;;;5010880;28;20124;-78
2023/10/23 02:00:26;;;;;;;11.40;6.50;;;8.30;96.80;;;;;;5013651;28;20578;-75
2023/10/23 02:02:52;;;;;;;10.50;6.70;;;8.30;96.90;;;;;;5006851;28;20552;-75
2023/10/23 02:05:18;;;;;;;10.50;6.80;;;8.30;96.90;;;;;;5009755;28;20422;-75
2023/10/23 02:07:43;;;;;;;11.05;6.32;;;8.30;96.90;;;;;;5007837;28;20114;-75
2023/10/23 02:10:09;;;;;;;11.30;6.90;;;8.30;97.00;;;;;;5009599;28;20368;-77
2023/10/23 02:12:35;;;;;;;11.13;7.10;;;8.30;96.90;;;;;;5002718;28;20173;-76
2023/10/23 02:15:01;;;;;;;10.48;6.57;;;8.20;97.00;;;;;;5006177;28;20035;-75
2023/10/23 02:17:26;;;;;;;11.00;6.57;;;8.20;97.00;;;;;;5006644;28;21830;-76
2023/10/23 02:19:52;;;;;;;14.82;6.82;;;8.20;97.00;;;;;;5012635;28;20056;-76
2023/10/23 02:22:18;;;;;;;12.18;6.13;;;8.20;97.00;;;;;;5004825;28;20058;-76
2023/10/23 02:24:45;;;;;;;10.00;6.03;;;8.20;97.00;;;;;;5010151;28;20046;-75
2023/10/23 02:27:11;;;;;;;11.48;6.03;;;8.10;97.00;;;;;;4999325;28;20050;-75
2023/10/23 02:29:39;;;;;;;11.52;6.05;;;8.10;97.00;;;;;;5004187;28;20033;-77
2023/10/23 02:32:06;;;;;;;11.07;6.47;;;8.20;97.00;;;;;;5007775;28;20057;-75
2023/10/23 02:34:31;;;;;;;12.45;5.97;;;8.20;96.90;;;;;;5004597;28;20406;-76
2023/10/23 02:36:57;;;;;;;11.50;6.03;;;8.10;96.90;;;;;;5002546;28;20042;-75
2023/10/23 02:39:23;;;;;;;10.40;6.03;;;8.10;96.90;;;;;;5004746;28;20702;-75
2023/10/23 02:41:48;;;;;;;11.65;5.55;;;8.20;96.90;;;;;;5003925;28;20492;-75
2023/10/23 02:44:14;;;;;;;15.30;6.32;;;8.10;96.90;;;;;;5003237;28;20149;-75
2023/10/23 02:46:40;;;;;;;13.88;6.63;;;8.10;96.80;;;;;;4997240;28;20389;-75
2023/10/23 02:49:06;;;;;;;12.23;6.63;;;8.10;96.80;;;;;;5002020;28;20492;-76
2023/10/23 02:51:32;;;;;;;13.50;7.32;;;8.10;96.80;;;;;;5005927;28;20542;-75
2023/10/23 02:53:57;;;;;;;13.90;7.50;;;8.00;96.80;;;;;;5000516;28;20129;-75
2023/10/23 02:56:23;;;;;;;12.95;7.72;;;8.00;96.90;;;;;;5002685;28;20120;-76
2023/10/23 02:58:49;;;;;;;12.52;7.50;;;8.10;97.00;;;;;;5003668;28;20108;-75
2023/10/23 03:01:15;;;;;;;13.95;8.38;;;8.10;97.00;;;;;;5001292;28;20038;-75
2023/10/23 03:03:41;;;;;;;13.52;9.43;;;8.10;97.00;;;;;;5006004;28;20393;-75
2023/10/23 03:06:07;;;;;;;13.55;7.95;;;8.10;97.00;;;;;;5003677;28;20042;-75
2023/10/23 03:08:33;;;;;;;12.93;7.97;;;8.10;97.10;;;;;;4999333;28;20045;-77
2023/10/23 03:10:59;;;;;;;13.73;8.35;;;8.20;97.10;;;;;;5002976;28;20087;-76
2023/10/23 03:13:24;;;;;;;16.50;8.98;;;8.20;97.10;;;;;;5001599;28;20037;-77
2023/10/23 03:15:50;;;;;;;17.48;9.00;;;8.20;97.20;;;;;;5001647;28;20041;-79
2023/10/23 03:18:16;;;;;;;14.43;7.72;;;8.20;97.20;;;;;;5003449;28;20045;-76
2023/10/23 03:20:41;;;;;;;12.43;8.13;;;8.20;97.20;;;;;;5001369;28;20034;-76
2023/10/23 03:23:08;;;;;;;13.77;7.72;;;8.10;97.20;;;;;;5000450;28;20736;-77
2023/10/23 03:25:34;;;;;;;12.10;7.82;;;8.20;97.20;;;;;;5003292;28;20054;-76
2023/10/23 03:28:00;;;;;;;11.18;7.18;;;8.10;97.20;;;;;;5000661;28;20100;-78
2023/10/23 03:30:25;;;;;;;12.40;7.30;;;8.10;97.20;;;;;;5000114;28;20522;-76
2023/10/23 03:32:51;;;;;;;11.30;7.35;;;8.10;97.20;;;;;;5003762;28;20041;-76
2023/10/23 03:35:17;;;;;;;13.10;7.13;;;8.10;97.20;;;;;;5002230;28;20034;-79
2023/10/23 03:37:43;;;;;;;11.77;7.72;;;8.10;97.30;;;;;;5004525;28;20069;-76
2023/10/23 03:40:10;;;;;;;15.25;8.02;;;8.10;97.30;;;;;;5002957;28;20037;-76
2023/10/23 03:42:36;;;;;;;16.63;8.27;;;8.10;97.30;;;;;;5003923;28;20045;-76
2023/10/23 03:45:02;;;;;;;13.25;7.47;;;8.10;97.20;;;;;;5003255;28;20058;-76
2023/10/23 03:47:28;;;;;;;13.50;7.25;;;8.10;97.20;;;;;;5000195;28;20118;-77
2023/10/23 03:49:53;;;;;;;15.32;8.30;;;8.00;97.20;;;;;;5005907;28;20117;-76
2023/10/23 03:52:19;;;;;;;17.23;8.30;;;7.90;97.20;;;;;;5001991;28;20038;-76
2023/10/23 03:54:45;;;;;;;15.05;7.85;;;7.90;97.20;;;;;;5002059;28;20042;-76
2023/10/23 03:57:11;;;;;;;16.58;7.35;;;7.90;97.30;;;;;;5003623;28;20139;-76
2023/10/23 03:59:36;;;;;;;11.18;6.40;;;8.00;97.30;;;;;;5002983;28;20041;-78
2023/10/23 04:02:02;;;;;;;11.07;6.38;;;7.90;97.30;;;;;;5003080;28;20037;-75
2023/10/23 04:04:28;;;;;;;14.32;7.43;;;7.90;97.30;;;;;;5003993;28;20030;-75
2023/10/23 04:06:53;;;;;;;15.50;8.13;;;7.90;97.30;;;;;;5005923;28;20116;-76
2023/10/23 04:09:19;;;;;;;14.05;8.20;;;7.90;97.30;;;;;;5008389;28;20022;-75
2023/10/23 04:11:45;;;;;;;16.13;7.00;;;7.90;97.30;;;;;;5003741;28;20057;-74
2023/10/23 04:14:10;;;;;;;14.20;6.57;;;8.00;97.40;;;;;;5005917;28;20131;-75
2023/10/23 04:16:36;;;;;;;12.85;6.70;;;8.00;97.40;;;;;;5002267;28;20042;-75
2023/10/23 04:19:02;;;;;;;15.45;7.05;;;8.00;97.40;;;;;;5008598;28;20061;-76
2023/10/23 04:21:27;;;;;;;16.23;7.53;;;8.00;97.40;;;;;;4998070;28;20050;-75
2023/10/23 04:23:55;;;;;;;17.02;7.40;;;7.90;97.40;;;;;;5003180;28;20052;-76
2023/10/23 04:26:21;;;;;;;11.88;6.80;;;7.90;97.40;;;;;;5004125;28;20049;-77
2023/10/23 04:28:47;;;;;;;13.30;7.65;;;8.00;97.50;;;;;;5004379;28;20022;-76
2023/10/23 04:31:13;;;;;;;12.25;6.78;;;8.00;97.50;;;;;;5002498;28;20050;-77
2023/10/23 04:33:38;;;;;;;16.13;7.53;;;7.90;97.50;;;;;;5010127;28;20105;-76
2023/10/23 04:36:04;;;;;;;12.57;6.25;;;7.90;97.60;;;;;;5010864;28;20038;-76
2023/10/23 04:38:31;;;;;;;10.48;6.60;;;7.90;97.60;;;;;;5005037;28;20065;-77
2023/10/23 04:40:57;;;;;;;13.43;6.65;;;7.90;97.70;;;;;;5009011;28;20153;-77
2023/10/23 04:43:22;;;;;;;11.35;6.38;;;7.90;97.70;;;;;;5005983;28;20684;-77
2023/10/23 04:45:48;;;;;;;13.32;8.00;;;7.90;97.70;;;;;;5005060;28;20041;-78
2023/10/23 04:48:14;;;;;;;15.98;6.97;;;7.90;97.80;;;;;;5001475;28;20121;-76
2023/10/23 04:50:40;;;;;;;13.07;7.43;;;7.90;97.70;;;;;;4988092;28;20042;-76
2023/10/23 04:53:06;;;;;;;14.85;6.82;;;7.90;97.80;;;;;;5002168;28;20041;-78
2023/10/23 04:55:38;;;;;;;10.77;7.03;;;7.90;97.70;;;;;;5002704;28;20026;-76
2023/10/23 04:58:04;;;;;;;13.07;7.00;;;7.80;97.70;;;;;;5005034;28;20037;-78
2023/10/23 05:00:33;;;;;;;14.32;6.93;;;7.80;97.70;;;;;;4999185;28;20086;-78
2023/10/23 05:02:59;;;;;;;15.77;7.32;;;7.80;97.80;;;;;;5005151;28;20096;-77
2023/10/23 05:05:24;;;;;;;16.48;7.53;;;7.80;97.80;;;;;;4999491;28;20054;-77
2023/10/23 05:07:50;;;;;;;14.45;7.35;;;7.80;97.80;;;;;;5004393;28;20814;-77
2023/10/23 05:10:16;;;;;;;16.40;7.38;;;7.80;97.80;;;;;;4999780;28;20643;-77
2023/10/23 05:12:42;;;;;;;15.45;7.45;;;7.80;97.80;;;;;;5003512;28;20806;-76
2023/10/23 05:15:08;;;;;;;13.10;7.32;;;7.70;97.90;;;;;;5008719;28;20073;-76
2023/10/23 05:17:34;;;;;;;12.68;6.70;;;7.80;97.90;;;;;;5000890;28;20037;-75
2023/10/23 05:20:01;;;;;;;15.48;7.28;;;7.80;97.90;;;;;;5002728;28;20042;-77
2023/10/23 05:22:27;;;;;;;14.60;6.90;;;7.80;97.90;;;;;;5003214;28;20049;-76
2023/10/23 05:24:52;;;;;;;15.80;7.07;;;7.70;97.90;;;;;;5004128;28;20037;-76
2023/10/23 05:27:18;;;;;;;13.98;6.88;;;7.70;97.90;;;;;;5001423;28;21188;-77
2023/10/23 05:29:44;;;;;;;11.48;6.57;;;7.70;97.90;;;;;;5003366;28;20035;-75
2023/10/23 05:32:10;;;;;;;22.08;7.50;;;7.70;97.90;;;;;;5000678;28;20111;-78
2023/10/23 05:34:35;;;;;;;13.10;7.00;;;7.70;97.90;;;;;;5001658;28;20129;-79
2023/10/23 05:37:01;;;;;;;11.98;6.38;;;7.70;98.00;;;;;;5001882;28;20038;-78
2023/10/23 05:39:28;;;;;;;13.70;7.43;;;7.60;98.00;;;;;;4999702;28;20340;-75
2023/10/23 05:41:54;;;;;;;15.65;7.53;;;7.60;98.00;;;;;;5001471;28;20041;-74
2023/10/23 05:44:19;;;;;;;17.75;7.97;;;7.60;98.00;;;;;;4996171;28;20580;-73
2023/10/23 05:46:45;;;;;;;13.73;8.57;;;7.70;98.10;;;;;;4999620;28;20048;-73
2023/10/23 05:49:11;;;;;;;17.25;8.95;;;7.70;98.10;;;;;;5002918;28;20061;-73
2023/10/23 05:51:37;;;;;;;16.92;8.73;;;7.80;98.10;;;;;;5001872;28;20180;-72
2023/10/23 05:54:02;;;;;;;16.77;8.45;;;7.70;98.00;;;;;;5002407;28;20037;-73
2023/10/23 05:56:29;;;;;;;15.50;9.23;;;7.70;98.00;;;;;;4999730;28;21876;-72
2023/10/23 05:58:55;;;;;;;14.63;8.15;;;7.70;98.00;;;;;;5001563;28;20084;-73
2023/10/23 06:01:20;;;;;;;15.80;9.48;;;7.70;98.10;;;;;;5002376;28;20033;-72
2023/10/23 06:03:46;;;;;;;16.77;9.68;;;7.70;98.20;;;;;;5005287;28;20097;-74
2023/10/23 06:06:14;;;;;;;17.35;10.52;;;7.70;98.20;;;;;;5003181;28;20144;-72
2023/10/23 06:08:40;;;;;;;20.15;13.02;;;7.70;98.20;;;;;;5000578;28;20595;-72
2023/10/23 06:11:12;;;;;;;18.08;12.57;;;7.70;98.20;;;;;;5000872;28;20548;-74
2023/10/23 06:13:39;;;;;;;17.55;12.50;;;7.80;98.30;;;;;;5002339;28;20041;-74
2023/10/23 06:16:05;;;;;;;19.02;12.98;;;7.80;98.30;;;;;;5004013;28;20056;-74
2023/10/23 06:18:35;;;;;;;18.95;11.60;;;7.80;98.30;;;;;;4999742;28;20030;-74
2023/10/23 06:21:06;;;;;;;20.60;11.23;;;7.80;98.40;;;;;;5003915;28;20030;-76
2023/10/23 06:23:35;;;;;;;16.90;9.93;;;7.70;98.40;;;;;;5007580;28;20030;-74
2023/10/23 06:26:01;;;;;;;18.27;11.10;;;7.70;98.40;;;;;;5003010;28;20042;-74
2023/10/23 06:28:27;;;;;;;18.50;11.38;;;7.70;98.40;;;;;;5002110;28;20029;-73
2023/10/23 06:30:53;;;;;;;16.42;9.93;;;7.70;98.50;;;;;;5002506;28;20509;-75
2023/10/23 06:33:18;;;;;;;19.65;10.48;;;7.70;98.50;;;;;;5007252;28;20069;-75
2023/10/23 06:35:44;;;;;;;23.05;12.40;;;7.80;98.50;;;;;;5003835;28;20490;-77
2023/10/23 06:38:10;;;;;;;20.55;11.07;;;7.80;98.60;;;;;;4999046;28;20029;-75
2023/10/23 06:40:35;;;;;;;17.90;10.15;;;7.80;98.60;;;;;;5001531;28;20164;-75
2023/10/23 06:43:01;;;;;;;19.83;11.38;;;7.80;98.60;;;;;;5002762;28;20026;-76
2023/10/23 06:45:26;;;;;;;17.30;9.57;;;7.80;98.70;;;;;;5001748;28;20038;-75
2023/10/23 06:47:52;;;;;;;18.08;9.85;;;7.80;98.70;;;;;;4999783;28;20120;-76
2023/10/23 06:50:18;;;;;;;16.77;9.60;;;7.80;98.70;;;;;;5001614;28;20487;-76
2023/10/23 06:52:44;;;;;;;17.02;9.43;;;7.90;98.70;;;;;;4999038;28;20038;-75
2023/10/23 06:55:11;;;;;;;16.02;8.80;;;7.90;98.70;;;;;;5002515;28;20100;-77
2023/10/23 06:57:36;;;;;;;17.33;8.35;;;8.00;98.70;;;;;;5004068;28;20452;-74
2023/10/23 07:00:02;;;;;;;16.63;8.90;;;8.00;98.60;;;;;;5001115;28;20034;-74
2023/10/23 07:02:28;;;;;;;22.20;10.23;;;8.00;98.60;;;;;;5003704;28;20038;-77
2023/10/23 07:04:54;;;;;;;15.05;9.25;;;8.10;98.60;;;;;;5001439;28;20034;-75
2023/10/23 07:07:19;;;;;;;14.63;9.23;;;8.10;98.60;;;;;;5000320;28;20026;-76
2023/10/23 07:09:45;;;;;;;19.63;9.57;;;8.10;98.60;;;;;;5002064;28;20529;-75
2023/10/23 07:12:12;;;;;;;18.23;10.73;;;8.20;98.50;;;;;;4998403;28;20499;-75
2023/10/23 07:14:38;;;;;;;17.98;9.77;;;8.20;98.50;;;;;;5000990;28;20121;-75
2023/10/23 07:17:04;;;;;;;16.80;9.68;;;8.20;98.40;;;;;;5005085;28;20865;-74
2023/10/23 07:19:30;;;;;;;17.10;8.85;;;8.30;98.40;;;;;;5001420;28;20034;-75
2023/10/23 07:21:55;;;;;;;20.77;9.60;;;8.40;98.40;;;;;;4999660;28;20048;-75
2023/10/23 07:24:21;;;;;;;16.33;10.70;;;8.40;98.40;;;;;;4999611;28;20161;-74
2023/10/23 07:26:59;;;;;;;18.75;11.27;;;8.50;98.40;;;;;;5066033;27;20419;-75
2023/10/23 07:29:25;;;;;;;19.17;10.98;;;8.50;98.30;;;;;;5032514;28;20171;-75
2023/10/23 07:31:51;;;;;;;16.67;10.55;;;8.50;98.30;;;;;;5039855;28;20516;-74
2023/10/23 07:34:16;;;;;;;21.38;12.35;;;8.60;98.30;;;;;;5038110;28;20031;-75
2023/10/23 07:36:42;;;;;;;21.83;12.65;;;8.60;98.20;;;;;;5035181;28;20053;-76
2023/10/23 07:39:08;;;;;;;18.67;11.70;;;8.70;98.20;;;;;;5040242;28;20490;-76
2023/10/23 07:41:34;;;;;;;20.23;11.00;;;8.80;98.20;;;;;;5037942;28;20072;-75
2023/10/23 07:43:59;;;;;;;21.33;12.20;;;8.80;98.20;;;;;;5038064;28;20021;-75
2023/10/23 07:46:25;;;;;;;27.10;11.80;;;9.00;98.20;;;;;;5038474;28;20033;-76
2023/10/23 07:48:51;;;;;;;23.77;12.18;;;9.00;98.20;;;;;;5035573;28;20018;-75
2023/10/23 07:51:16;;;;;;;26.80;12.55;;;9.10;98.20;;;;;;5036593;28;20041;-76
2023/10/23 07:53:42;;;;;;;19.00;12.30;;;9.10;98.20;;;;;;5037383;28;20040;-76
2023/10/23 07:56:08;;;;;;;21.08;11.93;;;9.20;98.20;;;;;;5038846;28;20039;-77
2023/10/23 07:58:34;;;;;;;20.17;11.70;;;9.30;98.30;;;;;;5037008;28;20036;-74
2023/10/23 08:01:11;;;;;;;22.10;12.77;;;9.40;98.30;;;;;;5036480;28;20037;-74
2023/10/23 08:03:37;;;;;;;26.75;13.10;;;9.60;98.30;;;;;;5033502;28;20080;-77
2023/10/23 08:06:04;;;;;;;22.95;12.65;;;9.60;98.30;;;;;;5052702;28;20045;-76
2023/10/23 08:08:33;;;;;;;23.40;14.65;;;9.70;98.20;;;;;;5036267;28;20385;-75
2023/10/23 08:10:59;;;;;;;24.48;11.40;;;9.80;98.00;;;;;;5035048;28;20065;-76
2023/10/23 08:13:25;;;;;;;22.23;10.88;;;9.90;98.00;;;;;;5039087;28;20489;-77
2023/10/23 08:15:51;;;;;;;21.90;10.82;;;10.10;98.00;;;;;;5038533;28;20041;-75
2023/10/23 08:18:17;;;;;;;21.48;11.23;;;10.10;97.90;;;;;;5038422;28;20358;-78
2023/10/23 08:20:43;;;;;;;18.35;9.55;;;10.20;98.00;;;;;;5037062;28;20044;-75
2023/10/23 08:23:09;;;;;;;23.95;12.18;;;10.40;97.90;;;;;;5032266;28;20041;-76
2023/10/23 08:25:34;;;;;;;18.63;10.32;;;10.50;97.80;;;;;;5035452;28;20056;-78
2023/10/23 08:28:00;;;;;;;22.75;11.20;;;10.60;97.80;;;;;;5035267;28;20628;-76
2023/10/23 08:30:26;;;;;;;19.55;9.93;;;10.70;97.70;;;;;;5035905;28;20022;-77
2023/10/23 08:32:51;;;;;;;20.42;10.52;;;10.80;97.50;;;;;;5037822;28;20029;-78
2023/10/23 08:35:19;;;;;;;15.25;9.43;;;10.90;97.10;;;;;;5036464;28;20052;-79
2023/10/23 08:37:45;;;;;;;24.95;9.98;;;10.90;97.10;;;;;;5021056;28;20045;-76
2023/10/23 08:40:11;;;;;;;16.48;8.07;;;11.00;96.80;;;;;;5024154;28;20478;-76
2023/10/23 08:42:37;;;;;;;22.30;9.15;;;11.00;96.70;;;;;;5024005;28;20041;-75
2023/10/23 08:45:03;;;;;;;20.80;9.40;;;11.10;96.50;;;;;;5022564;28;20041;-78
2023/10/23 08:47:29;;;;;;;17.65;8.43;;;11.10;96.30;;;;;;5027285;28;20025;-75
2023/10/23 08:49:59;;;;;;;19.58;8.63;;;11.20;96.30;;;;;;5023113;28;20052;-76
2023/10/23 08:52:31;;;;;;;16.58;9.57;;;11.40;96.30;;;;;;5021950;28;20702;-77
2023/10/23 08:54:58;;;;;;;16.60;7.15;;;11.40;96.30;;;;;;5025734;28;20037;-76
2023/10/23 08:57:24;;;;;;;15.98;8.18;;;11.50;96.10;;;;;;5023798;28;20079;-78
2023/10/23 08:59:50;;;;;;;15.95;7.30;;;11.60;96.10;;;;;;5025027;28;20121;-76
2023/10/23 09:02:16;;;;;;;17.25;7.82;;;11.60;95.80;;;;;;5018130;28;20168;-77
2023/10/23 09:04:41;;;;;;;15.88;7.43;;;11.70;96.00;;;;;;5021616;28;20029;-76
2023/10/23 09:07:07;;;;;;;16.48;7.13;;;11.80;95.70;;;;;;5022754;28;20030;-77
2023/10/23 09:09:32;;;;;;;15.32;6.72;;;11.80;95.50;;;;;;5022197;28;20785;-76
2023/10/23 09:11:58;;;;;;;14.68;7.80;;;11.90;95.30;;;;;;5010351;28;20056;-75
2023/10/23 09:14:30;;;;;;;16.73;7.80;;;12.00;95.10;;;;;;5018813;28;20489;-76
2023/10/23 09:16:57;;;;;;;16.20;7.22;;;12.00;94.90;;;;;;5023181;28;20700;-75
2023/10/23 09:19:43;;;;;;;17.83;9.48;;;12.00;94.90;;;;;;5023544;28;20037;-76
2023/10/23 09:22:12;;;;;;;15.63;8.68;;;12.10;94.80;;;;;;5020424;28;20049;-75
2023/10/23 09:24:38;;;;;;;19.65;7.60;;;12.10;94.60;;;;;;5016612;28;20520;-76
2023/10/23 09:27:04;;;;;;;22.00;7.75;;;12.20;94.70;;;;;;5017753;28;20135;-77
2023/10/23 09:29:29;;;;;;;17.00;7.53;;;12.30;94.60;;;;;;5028983;28;20029;-73
2023/10/23 09:31:59;;;;;;;17.92;8.38;;;12.40;94.20;;;;;;5024230;28;20093;-75
2023/10/23 09:34:26;;;;;;;18.35;7.40;;;12.40;94.00;;;;;;5020340;28;20030;-77
2023/10/23 09:36:52;;;;;;;15.32;7.22;;;12.50;94.20;;;;;;5017841;28;20042;-76
2023/10/23 09:39:19;;;;;;;17.83;7.25;;;12.50;94.00;;;;;;5021352;28;20025;-78
2023/10/23 09:41:48;;;;;;;17.10;6.90;;;12.60;94.10;;;;;;5023304;28;20037;-75
2023/10/23 09:44:15;;;;;;;16.77;6.50;;;12.60;93.50;;;;;;5021014;28;20032;-78
2023/10/23 09:46:44;;;;;;;16.02;6.53;;;12.70;93.40;;;;;;5017973;28;20124;-77
2023/10/23 09:49:11;;;;;;;15.38;6.07;;;12.70;93.30;;;;;;5016973;28;20022;-75
2023/10/23 09:51:39;;;;;;;14.18;6.55;;;12.70;93.00;;;;;;5020304;28;20124;-75
2023/10/23 09:54:17;;;;;;;16.88;6.93;;;12.80;93.10;;;;;;5016450;28;20036;-75
2023/10/23 09:56:51;;;;;;;16.08;7.07;;;12.80;92.80;;;;;;5018674;28;20502;-76
2023/10/23 09:59:18;;;;;;;15.05;6.30;;;12.90;92.60;;;;;;5022900;28;20068;-74
2023/10/23 10:01:48;;;;;;;15.82;8.93;;;12.90;93.00;;;;;;5018934;28;20033;-76
2023/10/23 10:04:26;;;;;;;15.18;8.00;;;13.10;92.90;;;;;;5022970;28;20033;-76
2023/10/23 10:07:04;;;;;;;18.73;7.25;;;13.10;92.30;;;;;;5040582;28;20041;-75
2023/10/23 10:09:31;;;;;;;11.52;5.50;;;13.10;92.20;;;;;;5038318;28;20021;-75
2023/10/23 10:11:58;;;;;;;16.23;6.18;;;13.20;92.30;;;;;;5034216;28;20033;-73
2023/10/23 10:14:26;;;;;;;14.75;5.82;;;13.30;92.10;;;;;;5018620;28;20041;-76
2023/10/23 10:16:55;;;;;;;16.52;6.07;;;13.40;92.10;;;;;;5021577;28;20048;-75
2023/10/23 10:19:21;;;;;;;13.80;6.38;;;13.20;91.80;;;;;;5013498;28;20044;-76
2023/10/23 10:22:04;;;;;;;16.20;6.20;;;13.30;92.00;;;;;;5008562;28;20128;-77
2023/10/23 10:24:35;;;;;;;19.92;5.88;;;13.40;91.90;;;;;;5013364;28;20188;-75
2023/10/23 10:27:06;;;;;;;12.77;5.38;;;13.30;91.50;;;;;;5015535;28;20042;-75
2023/10/23 10:29:31;;;;;;;17.48;5.45;;;13.30;91.40;;;;;;5013957;28;20021;-76
2023/10/23 10:32:05;;;;;;;14.45;6.13;;;13.30;91.40;;;;;;5012443;28;20041;-77
2023/10/23 10:34:32;;;;;;;16.13;5.97;;;13.30;91.60;;;;;;5014576;28;20578;-75
2023/10/23 10:36:59;;;;;;;15.52;6.05;;;13.30;91.40;;;;;;5012237;28;20029;-77
2023/10/23 10:39:50;;;;;;;18.92;5.82;;;13.40;91.60;;;;;;5015062;28;20021;-77
2023/10/23 10:42:26;;;;;;;16.27;5.97;;;13.50;91.50;;;;;;5006518;28;20500;-77
2023/10/23 10:44:56;;;;;;;13.20;6.22;;;13.50;91.70;;;;;;5014765;28;20533;-76
2023/10/23 10:47:41;;;;;;;15.32;6.60;;;13.50;91.80;;;;;;5012836;28;20034;-75
2023/10/23 10:50:10;;;;;;;14.40;6.60;;;13.60;91.90;;;;;;5015656;28;20061;-76
2023/10/23 10:52:37;;;;;;;16.15;6.70;;;13.60;92.10;;;;;;5013357;28;20242;-73
2023/10/23 10:55:13;;;;;;;19.23;6.90;;;13.60;91.90;;;;;;5007337;28;20100;-75
2023/10/23 10:57:45;;;;;;;20.67;6.70;;;13.60;92.00;;;;;;5007402;28;20037;-75
2023/10/23 11:00:12;;;;;;;15.27;5.60;;;13.70;92.50;;;;;;5008123;28;20052;-76
2023/10/23 11:02:38;;;;;;;15.07;5.53;;;13.90;92.60;;;;;;5017661;28;20113;-75
2023/10/23 11:05:11;;;;;;;15.07;5.47;;;13.90;92.00;;;;;;5015695;28;20124;-73
2023/10/23 11:07:37;;;;;;;15.73;5.57;;;14.00;91.60;;;;;;5010613;28;20061;-75
2023/10/23 11:10:04;;;;;;;15.77;5.55;;;14.10;91.30;;;;;;5015356;28;20037;-77
2023/10/23 11:12:30;;;;;;;18.13;5.15;;;14.10;90.30;;;;;;5015938;28;20518;-76
2023/10/23 11:14:56;;;;;;;15.60;4.82;;;14.10;89.60;;;;;;5016110;28;20128;-77
2023/10/23 11:17:23;;;;;;;15.32;4.97;;;14.20;89.80;;;;;;5014500;28;21475;-75
2023/10/23 11:19:49;;;;;;;16.65;5.97;;;14.20;89.70;;;;;;5011437;28;20032;-76
2023/10/23 11:22:18;;;;;;;15.82;5.68;;;14.20;89.60;;;;;;5017009;28;20437;-79
2023/10/23 11:24:43;;;;;;;14.38;5.03;;;14.20;89.50;;;;;;5013499;28;20568;-77
2023/10/23 11:27:09;;;;;;;16.45;5.13;;;14.10;89.40;;;;;;5013564;28;20064;-74
2023/10/23 11:29:42;;;;;;;14.05;5.40;;;14.20;89.30;;;;;;5011281;28;20078;-77
2023/10/23 11:32:08;;;;;;;16.13;5.50;;;14.20;89.10;;;;;;5014998;28;20156;-74
2023/10/23 11:34:38;;;;;;;13.30;4.50;;;14.30;89.30;;;;;;5014540;28;20662;-75
2023/10/23 11:37:05;;;;;;;15.35;5.18;;;14.20;88.40;;;;;;5013465;28;20427;-74
2023/10/23 11:39:31;;;;;;;15.77;4.53;;;14.30;88.90;;;;;;5016841;28;20051;-76
2023/10/23 11:41:58;;;;;;;13.25;4.38;;;14.30;88.60;;;;;;5017797;28;20041;-75
2023/10/23 11:44:27;;;;;;;14.27;5.00;;;14.30;88.40;;;;;;5018572;28;20044;-76
2023/10/23 11:47:01;;;;;;;13.45;5.25;;;14.30;87.90;;;;;;5012108;28;20062;-77
2023/10/23 11:49:27;;;;;;;12.40;4.47;;;14.40;88.10;;;;;;5006924;28;20025;-77
2023/10/23 11:51:56;;;;;;;15.65;4.78;;;14.40;87.70;;;;;;5017181;28;20407;-75
2023/10/23 11:54:23;;;;;;;12.38;4.75;;;14.50;87.90;;;;;;5020674;28;20029;-77
2023/10/23 11:56:49;;;;;;;15.48;4.85;;;14.50;88.20;;;;;;5011088;28;20038;-75
2023/10/23 11:59:19;;;;;;;13.45;4.30;;;14.60;88.30;;;;;;5017026;28;20071;-76
2023/10/23 12:01:46;;;;;;;16.30;5.13;;;14.70;88.20;;;;;;5011516;28;20057;-76
2023/10/23 12:04:12;;;;;;;16.95;4.82;;;14.60;87.20;;;;;;5017443;28;20033;-75
2023/10/23 12:06:39;;;;;;;15.50;5.80;;;14.60;87.60;;;;;;5016796;28;20045;-75
2023/10/23 12:09:05;;;;;;;10.90;4.95;;;14.60;87.60;;;;;;5019142;28;20484;-74
2023/10/23 12:11:31;;;;;;;18.52;5.60;;;14.60;88.10;;;;;;5017179;28;20038;-75
2023/10/23 12:13:59;;;;;;;18.60;6.78;;;14.60;88.20;;;;;;5022993;28;20025;-75
2023/10/23 12:16:28;;;;;;;17.98;5.88;;;14.60;88.00;;;;;;5020483;28;20133;-76
2023/10/23 12:18:54;;;;;;;14.95;5.63;;;14.60;88.10;;;;;;5020710;28;20037;-74
2023/10/23 12:21:20;;;;;;;13.77;6.15;;;14.60;88.30;;;;;;5019342;28;20037;-73
2023/10/23 12:23:46;;;;;;;14.40;5.97;;;14.50;88.30;;;;;;5023950;28;20044;-75
2023/10/23 12:26:13;;;;;;;14.55;6.75;;;14.50;88.40;;;;;;5018650;28;20056;-74
2023/10/23 12:28:39;;;;;;;13.20;6.38;;;14.50;88.50;;;;;;5022066;28;20116;-75
2023/10/23 12:31:05;;;;;;;16.25;5.80;;;14.40;88.50;;;;;;5012778;28;20145;-75
2023/10/23 12:33:31;;;;;;;15.38;5.72;;;14.40;88.50;;;;;;5023602;28;20673;-76
2023/10/23 12:36:00;;;;;;;14.40;6.47;;;14.40;88.60;;;;;;5022853;28;20041;-74
2023/10/23 12:38:28;;;;;;;18.95;7.40;;;14.40;88.70;;;;;;5021151;28;20034;-75
2023/10/23 12:40:54;;;;;;;24.67;8.50;;;14.40;88.70;;;;;;5022732;28;20080;-74